Time;durP1;ratioP1;P1;durP2;ratioP2;P2;SDS_P1;SDS_P2;PMS_P1;PMS_P2;Temp;Humidity;BMP_temperature;BMP_pressure;BME280_temperature;BME280_humidity;BME280_pressure;Samples;Min_cycle;Max_cycle;Signal;HPM_P1;HPM_P2
2022/09/04 00:01:46;;;;;;;2.95;2.42;;;;;;;24.38;58.57;101755.63;5054874;28;20021;-81
2022/09/04 00:04:27;;;;;;;2.63;2.42;;;;;;;24.45;58.58;101775.28;5073773;28;20035;-81
2022/09/04 00:07:07;;;;;;;2.50;2.30;;;;;;;24.35;58.69;101774.28;5060224;28;20108;-79
2022/09/04 00:09:52;;;;;;;3.40;2.63;;;;;;;24.26;58.82;101771.53;5072625;28;20025;-80
2022/09/04 00:12:24;;;;;;;3.45;2.60;;;;;;;24.28;59.20;101784.00;5034291;28;20048;-81
2022/09/04 00:15:01;;;;;;;2.40;2.20;;;;;;;24.27;58.88;101776.84;5044448;28;20028;-82
2022/09/04 00:17:50;;;;;;;2.58;2.30;;;;;;;24.39;58.39;101784.16;5056051;28;20580;-82
2022/09/04 00:20:41;;;;;;;2.72;2.33;;;;;;;24.37;58.60;101777.88;5042289;28;20035;-81
2022/09/04 00:23:21;;;;;;;2.58;2.38;;;;;;;24.35;58.30;101776.97;5063108;28;20146;-79
2022/09/04 00:26:32;;;;;;;2.47;2.20;;;;;;;24.25;58.81;101775.03;5055700;28;20485;-80
2022/09/04 00:29:02;;;;;;;3.20;2.47;;;;;;;24.28;58.49;101778.66;5055480;28;20081;-81
2022/09/04 00:31:47;;;;;;;3.97;2.67;;;;;;;24.22;58.89;101780.34;5055265;28;20082;-82
2022/09/04 00:34:39;;;;;;;3.50;2.60;;;;;;;24.25;58.56;101778.59;5069159;28;20464;-82
2022/09/04 00:37:06;;;;;;;2.53;2.33;;;;;;;24.26;58.97;101784.88;5069548;28;20501;-81
2022/09/04 00:39:45;;;;;;;2.58;2.33;;;;;;;24.23;58.80;101783.03;5037730;28;20177;-81
2022/09/04 00:42:39;;;;;;;4.75;2.15;;;;;;;24.25;58.41;101781.28;5072734;28;20048;-82
2022/09/04 00:45:27;;;;;;;2.53;2.33;;;;;;;24.22;59.06;101791.03;5048490;28;20577;-82
2022/09/04 00:48:30;;;;;;;3.08;2.67;;;;;;;24.26;58.66;101791.09;5071039;28;20546;-81
2022/09/04 00:51:40;;;;;;;3.47;2.60;;;;;;;24.17;59.00;101781.19;5072487;28;20025;-82
2022/09/04 00:54:34;;;;;;;2.72;2.30;;;;;;;24.27;58.59;101791.97;5046308;28;20037;-81
2022/09/04 00:57:18;;;;;;;3.15;2.55;;;;;;;24.27;58.67;101794.66;5043457;28;20024;-80
2022/09/04 01:00:07;;;;;;;2.55;2.35;;;;;;;24.30;58.40;101800.03;5071222;28;20028;-81
2022/09/04 01:03:11;;;;;;;2.85;2.55;;;;;;;24.16;58.45;101773.16;5072948;28;20028;-81
2022/09/04 01:06:14;;;;;;;4.20;2.70;;;;;;;24.29;58.45;101801.81;5000906;28;20030;-81
2022/09/04 01:08:58;;;;;;;2.65;2.45;;;;;;;24.26;58.87;101796.44;5060682;28;20028;-81
2022/09/04 01:12:02;;;;;;;4.72;2.88;;;;;;;24.20;58.60;101787.44;5055065;28;20024;-81
2022/09/04 01:14:33;;;;;;;3.58;2.35;;;;;;;24.20;58.76;101799.00;4971477;28;20038;-81
2022/09/04 01:17:36;;;;;;;3.47;2.58;;;;;;;24.09;58.91;101787.28;4971579;28;20038;-82
2022/09/04 01:20:18;;;;;;;2.75;2.53;;;;;;;24.20;58.64;101799.00;5016920;28;20506;-82
2022/09/04 01:22:58;;;;;;;3.20;2.63;;;;;;;24.21;58.89;101799.91;5054486;28;20481;-82
2022/09/04 01:25:42;;;;;;;4.00;2.63;;;;;;;24.02;58.65;101778.28;5054174;28;20111;-82
2022/09/04 01:28:26;;;;;;;3.47;2.92;;;;;;;24.20;58.65;101801.69;5072610;28;20025;-83
2022/09/04 01:31:05;;;;;;;3.05;2.75;;;;;;;24.15;58.73;101803.38;5071687;28;20035;-83
2022/09/04 01:33:35;;;;;;;3.28;2.90;;;;;;;24.06;58.89;101784.56;5042962;28;20053;-83
2022/09/04 01:36:01;;;;;;;3.28;2.88;;;;;;;24.19;58.66;101799.88;5071240;28;20090;-83
2022/09/04 01:38:49;;;;;;;4.22;2.85;;;;;;;24.20;58.81;101798.13;5071925;28;20081;-83
2022/09/04 01:41:21;;;;;;;3.78;2.80;;;;;;;24.18;58.85;101798.97;5053561;28;20543;-83
2022/09/04 01:43:47;;;;;;;3.45;2.80;;;;;;;24.21;58.66;101802.56;5072177;28;20028;-83
2022/09/04 01:46:15;;;;;;;;;;;;;;;24.22;58.92;101801.72;5055205;28;20470;-82
2022/09/04 01:48:54;;;;;;;4.10;2.75;;;;;;;24.20;58.80;101800.78;5072096;28;19930;-82
2022/09/04 01:51:45;;;;;;;3.60;2.75;;;;;;;24.12;59.03;101798.88;5071317;28;20024;-84
2022/09/04 01:54:16;;;;;;;3.25;2.75;;;;;;;24.10;58.55;101797.06;5053578;28;20085;-82
2022/09/04 01:56:53;;;;;;;4.15;3.17;;;;;;;24.12;58.93;101803.34;5071600;28;20107;-83
2022/09/04 01:59:48;;;;;;;3.20;2.72;;;;;;;24.08;58.94;101796.16;5071188;28;20032;-82
2022/09/04 02:02:41;;;;;;;3.65;2.92;;;;;;;23.96;59.38;101797.78;5046855;28;20071;-81
2022/09/04 02:05:20;;;;;;;3.80;2.83;;;;;;;24.07;58.69;101794.38;5040377;28;20024;-80
2022/09/04 02:08:10;;;;;;;3.97;2.90;;;;;;;24.11;58.86;101793.56;5039164;28;20120;-81
2022/09/04 02:11:02;;;;;;;4.40;3.15;;;;;;;24.05;58.93;101793.47;5071290;28;20485;-82
2022/09/04 02:14:07;;;;;;;3.88;3.20;;;;;;;24.10;58.75;101805.97;5047960;28;20032;-82
2022/09/04 02:16:36;;;;;;;4.05;3.08;;;;;;;24.06;59.06;101812.13;5020391;28;20089;-81
2022/09/04 02:19:29;;;;;;;3.88;2.92;;;;;;;24.07;58.89;101815.72;5071331;28;20031;-81
2022/09/04 02:22:06;;;;;;;4.82;2.90;;;;;;;23.94;58.82;101787.97;5070985;28;20040;-82
2022/09/04 02:24:37;;;;;;;3.88;2.80;;;;;;;24.10;58.54;101819.31;5071434;28;20032;-82
2022/09/04 02:27:06;;;;;;;4.75;3.10;;;;;;;24.09;58.86;101811.31;5053612;28;20116;-81
2022/09/04 02:29:56;;;;;;;3.80;3.13;;;;;;;24.05;59.15;101815.69;5071046;28;20044;-81
2022/09/04 02:32:27;;;;;;;4.13;3.47;;;;;;;23.85;59.36;101798.47;5070454;28;20082;-81
2022/09/04 02:34:59;;;;;;;4.60;2.72;;;;;;;23.99;59.07;101818.28;5032977;28;20395;-81
2022/09/04 02:37:32;;;;;;;4.50;2.95;;;;;;;23.99;59.22;101823.59;5070203;28;20031;-81
2022/09/04 02:40:23;;;;;;;3.72;3.22;;;;;;;23.96;59.13;101824.47;5053270;28;20023;-81
2022/09/04 02:43:01;;;;;;;3.88;3.13;;;;;;;23.96;58.92;101823.53;5068971;28;20024;-81
2022/09/04 02:45:58;;;;;;;5.13;3.22;;;;;;;23.91;58.99;101810.13;5060511;28;20107;-81
2022/09/04 02:48:41;;;;;;;3.22;2.92;;;;;;;23.94;59.09;101823.53;5062936;28;20024;-81
2022/09/04 02:51:19;;;;;;;4.95;2.90;;;;;;;23.96;59.05;101828.88;5052627;28;20033;-82
2022/09/04 02:53:56;;;;;;;3.75;3.20;;;;;;;23.85;59.00;101801.13;5069692;28;20028;-82
2022/09/04 02:56:36;;;;;;;3.75;2.90;;;;;;;23.98;58.78;101825.38;5050356;28;20253;-81
2022/09/04 02:59:27;;;;;;;4.50;3.28;;;;;;;24.01;58.85;101827.19;5052990;28;20065;-81
2022/09/04 03:01:58;;;;;;;4.72;3.40;;;;;;;23.96;59.03;101824.47;5053337;28;20008;-81
2022/09/04 03:04:32;;;;;;;4.70;3.53;;;;;;;23.98;59.02;101828.06;5053148;28;20087;-81
2022/09/04 03:07:16;;;;;;;4.65;3.25;;;;;;;23.98;59.10;101821.78;5061581;28;20021;-81
2022/09/04 03:09:53;;;;;;;4.47;3.10;;;;;;;23.94;59.06;101823.53;5070458;28;20512;-81
2022/09/04 03:12:29;;;;;;;3.65;3.08;;;;;;;23.87;59.12;101802.06;5052989;28;20021;-81
2022/09/04 03:15:16;;;;;;;3.78;2.97;;;;;;;23.98;59.00;101829.78;5066969;28;20016;-82
2022/09/04 03:18:02;;;;;;;3.55;3.22;;;;;;;23.99;58.89;101828.94;5053117;28;20024;-81
2022/09/04 03:20:36;;;;;;;4.13;3.00;;;;;;;23.95;59.21;101838.66;5053092;28;20017;-80
2022/09/04 03:23:24;;;;;;;4.00;3.42;;;;;;;23.92;59.03;101832.41;5058292;28;20020;-80
2022/09/04 03:25:56;;;;;;;4.57;3.30;;;;;;;23.87;59.09;101829.63;5056809;28;20043;-80
2022/09/04 03:28:32;;;;;;;6.00;3.60;;;;;;;23.95;58.99;101845.78;5062458;28;20081;-81
2022/09/04 03:31:36;;;;;;;3.47;3.13;;;;;;;23.95;59.10;101835.09;5055738;28;20020;-81
2022/09/04 03:34:26;;;;;;;4.07;3.33;;;;;;;23.92;59.26;101841.28;5042322;28;20125;-81
2022/09/04 03:36:59;;;;;;;5.25;3.10;;;;;;;23.94;59.11;101839.56;5052881;28;20032;-82
2022/09/04 03:39:45;;;;;;;5.03;3.47;;;;;;;23.86;59.20;101826.97;5052822;28;20157;-82
2022/09/04 03:42:17;;;;;;;3.95;3.35;;;;;;;23.91;59.06;101839.47;5070184;28;21417;-82
2022/09/04 03:44:48;;;;;;;4.18;3.20;;;;;;;23.88;59.02;101839.44;5074177;28;20028;-82
2022/09/04 03:47:42;;;;;;;3.95;3.47;;;;;;;23.85;59.24;101835.81;5057271;28;20029;-82
2022/09/04 03:50:26;;;;;;;3.58;3.28;;;;;;;23.88;59.22;101831.44;5049597;28;20465;-82
2022/09/04 03:53:04;;;;;;;3.78;3.28;;;;;;;23.90;59.23;101844.81;5070598;28;20024;-82
2022/09/04 03:55:36;;;;;;;4.18;3.40;;;;;;;23.91;59.24;101849.25;5074109;28;20482;-82
2022/09/04 03:58:08;;;;;;;4.15;3.38;;;;;;;23.84;59.26;101863.38;5073658;28;20485;-82
2022/09/04 04:01:04;;;;;;;3.78;3.35;;;;;;;23.68;59.20;101823.06;5057466;28;20094;-82
2022/09/04 04:03:49;;;;;;;4.35;3.08;;;;;;;23.89;59.02;101867.91;5029502;28;20037;-82
2022/09/04 04:06:22;;;;;;;4.00;3.38;;;;;;;23.87;59.23;101863.41;5055717;28;20025;-82
2022/09/04 04:09:03;;;;;;;5.45;3.60;;;;;;;23.73;59.42;101849.84;5055829;28;20051;-83
2022/09/04 04:12:06;;;;;;;4.20;3.60;;;;;;;23.85;59.04;101852.72;5055714;28;20034;-82
2022/09/04 04:14:50;;;;;;;4.25;3.38;;;;;;;23.77;59.32;101843.72;5069403;28;20103;-82
2022/09/04 04:17:40;;;;;;;4.65;3.67;;;;;;;23.81;59.26;101855.31;5072595;28;20024;-82
2022/09/04 04:20:11;;;;;;;3.80;3.40;;;;;;;23.84;59.31;101860.72;5073089;28;20158;-81
2022/09/04 04:23:01;;;;;;;5.60;3.40;;;;;;;23.86;58.98;101866.97;5073435;28;20020;-81
2022/09/04 04:25:36;;;;;;;4.25;3.33;;;;;;;23.81;59.00;101856.19;5071242;28;20497;-81
2022/09/04 04:28:23;;;;;;;4.87;3.43;;;;;;;23.87;59.03;101856.31;5067213;28;20063;-82
2022/09/04 04:30:51;;;;;;;4.88;3.63;;;;;;;23.69;59.56;101856.88;5039290;28;20094;-83
2022/09/04 04:33:41;;;;;;;4.50;3.63;;;;;;;23.81;59.23;101863.31;5049154;28;20032;-84
2022/09/04 04:36:14;;;;;;;4.85;3.63;;;;;;;23.73;59.35;101866.72;5026013;28;20040;-83
2022/09/04 04:38:52;;;;;;;5.22;3.72;;;;;;;23.70;59.43;101848.00;5051072;28;20021;-83
2022/09/04 04:41:27;;;;;;;3.92;3.53;;;;;;;23.77;59.45;101859.72;5035018;28;20111;-84
2022/09/04 04:44:14;;;;;;;5.70;3.70;;;;;;;23.78;59.22;101859.72;5050820;28;20116;-84
2022/09/04 04:47:02;;;;;;;3.90;3.50;;;;;;;23.73;59.22;101857.84;5034978;28;20774;-83
2022/09/04 04:50:02;;;;;;;6.00;3.60;;;;;;;23.74;59.36;101857.84;5007589;28;20597;-84
2022/09/04 04:52:54;;;;;;;4.50;3.70;;;;;;;23.76;59.22;101858.81;5000777;28;20076;-83
2022/09/04 04:56:02;;;;;;;7.78;3.50;;;;;;;23.73;59.11;101855.16;5038226;28;20094;-84
2022/09/04 04:58:36;;;;;;;5.00;3.78;;;;;;;23.71;59.17;101856.91;4987315;28;20030;-83
2022/09/04 05:01:08;;;;;;;5.50;3.90;;;;;;;23.68;59.28;101855.06;4990588;28;20033;-82
2022/09/04 05:03:37;;;;;;;5.10;3.97;;;;;;;23.57;59.60;101865.53;5010888;28;20101;-81
2022/09/04 05:06:08;;;;;;;3.97;3.50;;;;;;;23.67;59.31;101861.28;5032425;28;20036;-82
2022/09/04 05:09:11;;;;;;;4.45;3.67;;;;;;;23.66;59.24;101862.13;5052673;28;20108;-82
2022/09/04 05:11:45;;;;;;;4.20;3.78;;;;;;;23.56;59.18;101838.88;5041279;28;20031;-82
2022/09/04 05:14:32;;;;;;;4.57;3.72;;;;;;;23.65;59.29;101863.03;5052245;28;20029;-83
2022/09/04 05:17:10;;;;;;;;;;;;;;;23.66;59.07;101866.59;5034749;28;20548;-84
2022/09/04 05:20:13;;;;;;;4.63;3.80;;;;;;;23.63;59.41;101877.22;5052395;28;20006;-83
2022/09/04 05:22:51;;;;;;;5.13;3.70;;;;;;;23.54;59.33;101857.50;5021646;28;20021;-84
2022/09/04 05:25:23;;;;;;;5.10;3.67;;;;;;;23.46;59.56;101872.47;5049549;28;20032;-84
2022/09/04 05:28:07;;;;;;;5.00;4.07;;;;;;;23.50;59.54;101868.97;5034289;28;20029;-83
2022/09/04 05:30:51;;;;;;;5.10;3.83;;;;;;;23.58;59.34;101871.81;5033731;28;20103;-83
2022/09/04 05:33:33;;;;;;;4.00;3.60;;;;;;;23.46;59.65;101877.78;5051865;28;20061;-83
2022/09/04 05:36:26;;;;;;;5.30;3.95;;;;;;;23.47;59.61;101862.69;5049530;28;20040;-83
2022/09/04 05:39:02;;;;;;;7.13;3.83;;;;;;;23.43;59.37;101874.16;5023963;28;20021;-83
2022/09/04 05:41:48;;;;;;;5.88;3.88;;;;;;;23.37;59.29;101867.84;5034028;28;20021;-83
2022/09/04 05:44:49;;;;;;;4.85;3.78;;;;;;;23.48;59.39;101878.72;5032151;28;20025;-82
2022/09/04 05:47:42;;;;;;;4.82;3.83;;;;;;;23.49;59.37;101875.16;5047853;28;20052;-82
2022/09/04 05:50:12;;;;;;;4.50;4.10;;;;;;;23.51;59.19;101884.09;5026176;28;20513;-82
2022/09/04 05:52:49;;;;;;;5.15;3.97;;;;;;;23.34;59.41;101853.56;5033336;28;20017;-82
2022/09/04 05:55:41;;;;;;;4.32;3.92;;;;;;;23.42;59.32;101865.28;5052111;28;20402;-82
2022/09/04 05:58:26;;;;;;;4.95;3.72;;;;;;;23.56;59.30;101886.88;5043346;28;20128;-82
2022/09/04 06:01:07;;;;;;;4.97;3.90;;;;;;;23.48;59.15;101869.84;5046834;28;20024;-82
2022/09/04 06:03:53;;;;;;;5.70;3.80;;;;;;;23.52;59.14;101906.34;5029423;28;20097;-83
2022/09/04 06:06:37;;;;;;;4.10;3.65;;;;;;;23.55;59.19;101901.06;5033214;28;20039;-83
2022/09/04 06:09:23;;;;;;;4.43;3.60;;;;;;;23.54;59.28;101896.59;5051451;28;20055;-81
2022/09/04 06:11:58;;;;;;;4.18;3.78;;;;;;;23.59;59.23;101902.91;5053637;28;20028;-83
2022/09/04 06:14:27;;;;;;;4.82;3.67;;;;;;;23.48;59.41;101883.16;5043692;28;20114;-81
2022/09/04 06:17:08;;;;;;;4.18;3.78;;;;;;;23.57;59.22;101909.97;5051203;28;20037;-82
2022/09/04 06:19:40;;;;;;;4.22;3.78;;;;;;;23.55;59.16;101911.72;5051264;28;20135;-81
2022/09/04 06:22:27;;;;;;;4.70;3.97;;;;;;;23.45;59.33;101909.75;5033191;28;20036;-81
2022/09/04 06:24:58;;;;;;;4.88;3.92;;;;;;;23.48;59.24;101913.38;5033650;28;20024;-81
2022/09/04 06:27:56;;;;;;;4.55;3.72;;;;;;;23.32;59.54;101892.63;5051716;28;20029;-84
2022/09/04 06:30:25;;;;;;;3.88;3.47;;;;;;;23.37;59.34;101896.28;5027498;28;20036;-83
2022/09/04 06:33:03;;;;;;;4.80;4.07;;;;;;;23.35;59.39;101896.25;5023981;28;20017;-81
2022/09/04 06:35:50;;;;;;;4.30;3.78;;;;;;;23.42;59.23;101910.59;5067862;28;20566;-83
2022/09/04 06:38:21;;;;;;;4.13;3.47;;;;;;;23.37;59.66;101920.28;5064546;28;20055;-82
2022/09/04 06:41:07;;;;;;;5.03;4.05;;;;;;;23.41;59.45;101929.22;5071143;28;20509;-83
2022/09/04 06:43:54;;;;;;;4.20;3.45;;;;;;;23.39;59.59;101931.88;5071164;28;20461;-83
2022/09/04 06:46:20;;;;;;;5.68;3.92;;;;;;;23.37;59.32;101922.94;5070083;28;20073;-82
2022/09/04 06:48:49;;;;;;;4.72;3.90;;;;;;;23.27;59.67;101928.97;5071166;28;20028;-82
2022/09/04 06:51:27;;;;;;;6.13;3.90;;;;;;;23.28;59.42;101922.75;5072634;28;20024;-82
2022/09/04 06:54:13;;;;;;;4.75;3.55;;;;;;;23.29;59.00;101927.22;5078500;28;20031;-83
2022/09/04 06:56:54;;;;;;;3.92;3.60;;;;;;;23.21;59.17;101915.50;5072531;28;20489;-80
2022/09/04 06:59:42;;;;;;;5.07;3.70;;;;;;;23.28;59.54;101945.00;5074795;28;20016;-83
2022/09/04 07:02:31;;;;;;;5.25;3.97;;;;;;;23.33;59.41;101948.63;5051430;28;20029;-83
2022/09/04 07:05:13;;;;;;;4.97;3.90;;;;;;;23.24;59.49;101940.47;5069860;28;20021;-84
2022/09/04 07:07:52;;;;;;;3.85;3.45;;;;;;;23.34;59.48;101952.19;5066691;28;20032;-84
2022/09/04 07:10:25;;;;;;;4.35;3.60;;;;;;;23.26;59.63;101941.41;5052855;28;20021;-84
2022/09/04 07:13:16;;;;;;;5.30;3.80;;;;;;;23.44;58.85;101964.84;5068699;28;20100;-86
2022/09/04 07:15:48;;;;;;;8.18;4.32;;;;;;;23.24;59.12;101936.88;5070434;28;20024;-83
2022/09/04 07:18:53;;;;;;;13.75;4.28;;;;;;;23.37;58.79;101968.28;5072620;28;20570;-84
2022/09/04 07:21:26;;;;;;;6.88;4.28;;;;;;;23.36;58.74;101961.13;4981293;28;20031;-85
2022/09/04 07:24:31;;;;;;;5.80;4.38;;;;;;;23.45;58.94;101963.06;5071048;28;20069;-84
2022/09/04 07:27:14;;;;;;;7.75;3.90;;;;;;;23.41;58.98;101959.47;5033858;28;20032;-81
2022/09/04 07:30:09;;;;;;;9.13;4.22;;;;;;;23.36;58.68;101961.13;5054569;28;20103;-81
2022/09/04 07:32:43;;;;;;;6.20;4.18;;;;;;;23.30;59.25;101945.00;5038493;28;20024;-85
2022/09/04 07:35:21;;;;;;;6.63;4.40;;;;;;;23.42;59.05;101963.03;5046553;28;20051;-83
2022/09/04 07:37:55;;;;;;;8.27;4.43;;;;;;;23.37;59.04;101976.25;5074397;28;20017;-83
2022/09/04 07:40:25;;;;;;;6.13;4.07;;;;;;;23.31;59.11;101949.47;5069607;28;20104;-82
2022/09/04 07:43:04;;;;;;;7.03;4.20;;;;;;;23.37;59.05;101957.59;5055392;28;20017;-83
2022/09/04 07:45:47;;;;;;;6.78;3.97;;;;;;;23.40;59.06;101957.66;5073340;28;20021;-84
2022/09/04 07:48:18;;;;;;;7.63;4.25;;;;;;;23.45;59.13;101942.66;5053297;28;20020;-83
2022/09/04 07:51:10;;;;;;;10.68;4.15;;;;;;;23.49;58.96;101946.28;5073566;28;20042;-85
2022/09/04 07:54:15;;;;;;;5.82;4.05;;;;;;;23.45;59.08;101949.75;5060990;28;20040;-83
2022/09/04 07:57:06;;;;;;;9.70;4.30;;;;;;;23.49;59.10;101951.59;5069760;28;20047;-83
2022/09/04 07:59:46;;;;;;;5.30;4.05;;;;;;;23.44;59.15;101958.63;5073016;28;20020;-83
2022/09/04 08:02:40;;;;;;;5.35;3.90;;;;;;;23.42;59.33;101957.69;5071822;28;20562;-83
2022/09/04 08:05:22;;;;;;;4.57;3.90;;;;;;;23.39;59.16;101955.88;5071172;28;20461;-84
2022/09/04 08:08:00;;;;;;;6.05;4.35;;;;;;;23.48;59.18;101955.16;5071099;28;20025;-84
2022/09/04 08:10:58;;;;;;;4.97;4.15;;;;;;;23.44;59.35;101962.19;5073918;28;20033;-83
2022/09/04 08:13:38;;;;;;;5.63;4.32;;;;;;;23.45;59.36;101966.66;5052480;28;20284;-83
2022/09/04 08:16:04;;;;;;;6.28;4.70;;;;;;;23.45;59.46;101968.41;5055752;28;20029;-83
2022/09/04 08:18:51;;;;;;;5.82;4.20;;;;;;;23.45;59.30;101955.06;5073538;28;20021;-83
2022/09/04 08:21:37;;;;;;;;;;;;;;;23.46;59.30;101957.78;5073983;28;20131;-83
2022/09/04 08:24:23;;;;;;;6.38;3.97;;;;;;;23.45;59.08;101966.66;5043302;28;20355;-84
2022/09/04 08:26:52;;;;;;;5.28;4.15;;;;;;;23.33;59.38;101937.97;5070996;28;20094;-83
2022/09/04 08:29:30;;;;;;;7.93;4.13;;;;;;;23.46;59.46;101951.56;5060751;28;20115;-84
2022/09/04 08:32:07;;;;;;;5.32;4.10;;;;;;;23.30;59.46;101929.91;5073865;28;20029;-83
2022/09/04 08:34:57;;;;;;;6.00;3.95;;;;;;;23.43;59.34;101949.72;5063464;28;20094;-83
2022/09/04 08:37:32;;;;;;;6.78;4.28;;;;;;;23.45;59.34;101944.41;5071744;28;20024;-83
2022/09/04 08:40:12;;;;;;;5.75;3.95;;;;;;;23.44;59.25;101951.50;5055078;28;20024;-83
2022/09/04 08:42:57;;;;;;;5.20;4.00;;;;;;;23.51;59.21;101961.41;5063811;28;20020;-83
2022/09/04 08:45:52;;;;;;;7.38;4.38;;;;;;;23.54;58.94;101952.59;5036748;28;20040;-82
2022/09/04 08:48:38;;;;;;;5.40;4.15;;;;;;;23.54;59.10;101941.94;4983779;28;20041;-83
2022/09/04 08:51:10;;;;;;;4.38;3.80;;;;;;;23.54;59.14;101947.28;5073069;28;20138;-83
2022/09/04 08:54:09;;;;;;;5.65;4.25;;;;;;;23.55;59.32;101930.38;5072601;28;20028;-83
2022/09/04 08:57:20;;;;;;;4.88;4.07;;;;;;;23.57;59.03;101921.53;5054573;28;20028;-82
2022/09/04 09:00:04;;;;;;;5.80;4.40;;;;;;;23.58;59.00;101920.69;5045418;28;20386;-83
2022/09/04 09:02:39;;;;;;;4.47;4.05;;;;;;;23.55;59.24;101925.94;5072698;28;20042;-83
2022/09/04 09:05:05;;;;;;;4.60;3.97;;;;;;;23.63;58.94;101920.78;5054206;28;20395;-83
2022/09/04 09:07:42;;;;;;;;;;;;;;;23.65;58.96;101920.81;5073321;28;20104;-83
2022/09/04 09:10:42;;;;;;;5.75;4.18;;;;;;;23.61;59.16;101916.28;5072323;28;19909;-82
2022/09/04 09:13:43;;;;;;;4.97;4.00;;;;;;;23.72;58.86;101912.03;5072272;28;20161;-83
2022/09/04 09:16:20;;;;;;;5.95;4.07;;;;;;;23.67;58.96;101911.97;5053330;28;20044;-81
2022/09/04 09:18:52;;;;;;;4.38;3.97;;;;;;;23.61;59.00;101911.84;5040265;28;20026;-83
2022/09/04 09:21:30;;;;;;;4.50;3.95;;;;;;;23.65;59.05;101919.03;5060956;28;20024;-84
2022/09/04 09:24:22;;;;;;;4.90;3.85;;;;;;;23.66;59.01;101933.25;5066561;28;20024;-82
2022/09/04 09:27:20;;;;;;;4.43;4.03;;;;;;;23.61;59.04;101922.50;5064345;28;20035;-82
2022/09/04 09:30:06;;;;;;;4.93;4.43;;;;;;;23.68;58.68;101939.53;5066587;28;20099;-82
2022/09/04 09:32:40;;;;;;;4.95;4.32;;;;;;;23.67;59.18;101937.75;5066777;28;20029;-85
2022/09/04 09:35:36;;;;;;;5.10;4.60;;;;;;;23.66;59.15;101936.81;5071863;28;20052;-83
2022/09/04 09:38:42;;;;;;;5.15;4.40;;;;;;;23.72;59.19;101928.03;5018246;28;20033;-83
2022/09/04 09:41:20;;;;;;;4.65;4.13;;;;;;;23.71;59.22;101931.59;5003496;28;20142;-84
2022/09/04 09:44:10;;;;;;;5.07;4.25;;;;;;;23.66;59.41;101925.25;4990999;28;20102;-84
2022/09/04 09:46:57;;;;;;;5.65;4.22;;;;;;;23.63;59.31;101922.53;5059586;28;20087;-84
2022/09/04 09:49:55;;;;;;;5.10;4.30;;;;;;;23.49;59.70;101900.94;5069703;28;20020;-83
2022/09/04 09:52:59;;;;;;;4.40;4.00;;;;;;;23.64;59.71;101933.22;5064389;28;20031;-83
2022/09/04 09:56:02;;;;;;;5.35;4.00;;;;;;;23.60;59.61;101923.41;5063892;28;20028;-83
2022/09/04 09:58:59;;;;;;;4.28;3.88;;;;;;;23.64;59.76;101932.31;5060862;28;20029;-83
2022/09/04 10:01:24;;;;;;;5.60;4.15;;;;;;;23.65;59.95;101929.69;5063371;28;20016;-84
2022/09/04 10:04:10;;;;;;;;;;;;;;;23.68;59.73;101924.41;5070287;28;20386;-83
2022/09/04 10:07:10;;;;;;;7.13;3.97;;;;;;;23.68;59.67;101929.75;5069748;28;19912;-82
2022/09/04 10:09:50;;;;;;;4.47;3.97;;;;;;;23.15;59.70;101842.53;5066320;28;20024;-83
2022/09/04 10:12:55;;;;;;;4.78;4.13;;;;;;;23.49;59.95;101920.50;5068821;28;20025;-83
2022/09/04 10:15:37;;;;;;;4.80;4.30;;;;;;;23.67;60.06;101940.41;5070172;28;20566;-82
2022/09/04 10:18:40;;;;;;;4.85;4.13;;;;;;;23.69;59.83;101931.56;5070701;28;20020;-82
2022/09/04 10:21:28;;;;;;;5.68;3.88;;;;;;;23.68;59.97;101928.84;5065367;28;20021;-82
2022/09/04 10:24:35;;;;;;;4.57;4.13;;;;;;;23.64;59.93;101929.66;5034469;28;20112;-82
2022/09/04 10:27:27;;;;;;;4.47;4.07;;;;;;;23.51;60.26;101913.44;5046736;28;20710;-82
2022/09/04 10:30:11;;;;;;;4.55;3.92;;;;;;;23.51;60.10;101900.09;5065148;28;20025;-82
2022/09/04 10:32:55;;;;;;;6.35;4.07;;;;;;;23.52;59.84;101888.56;5051041;28;20106;-82
2022/09/04 10:36:03;;;;;;;5.03;4.00;;;;;;;23.61;59.97;101893.19;5070889;28;20044;-83
2022/09/04 10:41:57;;;;;;;4.68;4.13;;;;;;;23.54;59.82;101889.50;5053456;28;20512;-83
2022/09/04 10:44:40;;;;;;;4.35;3.95;;;;;;;23.59;60.04;101894.91;5067385;28;20027;-83
2022/09/04 10:47:31;;;;;;;4.65;4.00;;;;;;;23.69;59.96;101922.66;5034581;28;20082;-82
2022/09/04 10:50:11;;;;;;;4.03;3.70;;;;;;;23.67;60.09;101922.63;5051808;28;20036;-82
2022/09/04 10:53:04;;;;;;;5.30;4.00;;;;;;;23.71;59.98;101923.59;5069043;28;20028;-83
2022/09/04 10:56:15;;;;;;;5.03;4.22;;;;;;;23.65;59.99;101923.47;5046652;28;20055;-83
2022/09/04 10:58:56;;;;;;;4.45;4.05;;;;;;;23.65;60.17;101921.69;5034718;28;20583;-83
2022/09/04 11:01:32;;;;;;;4.32;3.92;;;;;;;23.70;59.93;101924.44;5072788;28;20024;-83
2022/09/04 11:04:19;;;;;;;4.30;3.90;;;;;;;23.69;60.11;101917.34;5069808;28;20047;-84
2022/09/04 11:07:25;;;;;;;4.80;3.65;;;;;;;23.73;59.90;101922.75;5071156;28;20506;-84
2022/09/04 11:13:22;;;;;;;3.90;3.60;;;;;;;23.69;60.21;101915.56;5069249;28;20036;-84
2022/09/04 11:29:58;;;;;;;4.85;4.03;;;;;;;23.79;59.88;101935.31;5061465;28;20039;-85
2022/09/04 11:44:05;;;;;;;4.38;3.97;;;;;;;23.87;59.46;101925.66;5058284;28;20285;-83
2022/09/04 11:51:33;;;;;;;4.28;3.88;;;;;;;23.80;59.71;101920.22;5052504;28;20082;-84
2022/09/04 11:57:45;;;;;;;4.32;3.92;;;;;;;23.83;59.68;101918.47;5069704;28;19919;-82
2022/09/04 12:20:36;;;;;;;4.43;4.00;;;;;;;23.85;59.62;101895.41;5024646;28;20061;-83
2022/09/04 12:23:55;;;;;;;;;;;;;;;;;;;;;
2022/09/04 12:34:00;;;;;;;5.38;4.80;;;;;;;23.79;59.88;101895.28;5008158;28;20068;-84
2022/09/04 12:43:47;;;;;;;5.40;4.50;;;;;;;23.81;59.81;101898.88;5005149;28;20029;-84
2022/09/04 12:46:52;;;;;;;5.13;4.60;;;;;;;23.77;60.04;101895.28;5031471;28;20037;-84
2022/09/04 12:49:56;;;;;;;5.80;4.10;;;;;;;23.85;59.66;101894.50;5013518;28;20044;-84
2022/09/04 12:53:15;;;;;;;4.90;4.40;;;;;;;23.26;59.99;101802.81;5030143;28;20112;-85
2022/09/04 12:59:35;;;;;;;4.88;4.32;;;;;;;23.55;59.51;101845.94;5029401;28;20533;-84
2022/09/04 13:02:51;;;;;;;5.55;4.28;;;;;;;23.81;59.91;101888.22;5018445;28;20410;-83
2022/09/04 13:05:25;;;;;;;5.90;4.78;;;;;;;23.79;59.62;101887.28;5008413;28;20044;-86
2022/09/04 13:08:55;;;;;;;5.53;4.45;;;;;;;23.43;59.63;101810.19;5031081;28;20025;-85
2022/09/04 13:15:11;;;;;;;5.53;4.50;;;;;;;23.16;60.02;101785.72;4882592;29;20038;-84
2022/09/04 13:18:14;;;;;;;4.90;4.15;;;;;;;23.74;60.07;101889.84;5032209;28;20029;-83
2022/09/04 13:21:22;;;;;;;5.72;4.50;;;;;;;23.69;60.01;101874.66;5013299;28;20038;-86
2022/09/04 13:24:26;;;;;;;5.88;4.65;;;;;;;23.80;59.72;101889.09;4973258;28;20038;-82
2022/09/04 13:27:25;;;;;;;6.93;4.30;;;;;;;23.82;59.71;101899.81;4974437;28;20504;-82
2022/09/04 13:30:20;;;;;;;6.72;4.82;;;;;;;23.68;60.06;101892.41;4994384;28;20030;-82
2022/09/04 13:33:25;;;;;;;4.90;4.35;;;;;;;23.72;60.13;101904.91;5012590;28;20030;-82
2022/09/04 13:36:34;;;;;;;6.88;4.82;;;;;;;23.80;59.83;101904.22;5007968;28;21202;-82
2022/09/04 13:39:38;;;;;;;4.95;4.45;;;;;;;23.76;60.02;101903.25;4990555;28;20046;-84
2022/09/04 13:42:19;;;;;;;4.85;4.35;;;;;;;23.80;59.74;101905.09;5007435;28;20195;-85
2022/09/04 13:45:15;;;;;;;5.90;4.38;;;;;;;23.87;59.61;101900.78;4999349;28;20121;-83
2022/09/04 13:47:48;;;;;;;5.13;4.53;;;;;;;23.46;59.79;101836.91;4984653;28;20078;-84
2022/09/04 13:50:19;;;;;;;5.07;4.47;;;;;;;23.81;59.79;101896.22;4992455;28;20507;-82
2022/09/04 13:52:54;;;;;;;6.32;4.93;;;;;;;23.78;60.03;101898.84;5009092;28;20129;-82
2022/09/04 13:55:32;;;;;;;5.43;4.43;;;;;;;23.87;59.65;101891.00;5009412;28;20037;-83
2022/09/04 13:58:18;;;;;;;6.82;4.72;;;;;;;23.88;59.75;101898.13;4997784;28;20498;-82
2022/09/04 14:00:51;;;;;;;5.30;4.50;;;;;;;23.85;59.97;101895.41;5031172;28;20036;-82
2022/09/04 14:03:45;;;;;;;5.55;4.43;;;;;;;23.86;59.98;101901.66;5014206;28;20031;-83
2022/09/04 14:06:17;;;;;;;5.05;4.05;;;;;;;23.54;60.00;101848.63;4995704;28;20089;-82
2022/09/04 14:08:50;;;;;;;7.75;4.50;;;;;;;23.66;60.02;101877.25;5032696;28;20030;-81
2022/09/04 14:11:25;;;;;;;5.00;4.45;;;;;;;23.87;59.49;101903.44;5014615;28;20117;-83